sensor_id;sensor_type;location;lat;lon;timestamp;pressure;altitude;pressure_sealevel;temperature;humidity
15308;BME280;7755;52.208;6.964;2023-07-31T00:00:14;100543.25;;;16.06;100.00
15308;BME280;7755;52.208;6.964;2023-07-31T00:04:17;100547.94;;;16.01;100.00
15308;BME280;7755;52.208;6.964;2023-07-31T00:08:20;100538.31;;;15.98;100.00
15308;BME280;7755;52.208;6.964;2023-07-31T00:12:25;100535.84;;;16.02;100.00
15308;BME280;7755;52.208;6.964;2023-07-31T00:16:28;100527.34;;;16.03;100.00
15308;BME280;7755;52.208;6.964;2023-07-31T00:20:31;100533.13;;;15.97;100.00
15308;BME280;7755;52.208;6.964;2023-07-31T00:24:34;100525.19;;;15.90;100.00
15308;BME280;7755;52.208;6.964;2023-07-31T00:28:39;100522.22;;;15.87;100.00
15308;BME280;7755;52.208;6.964;2023-07-31T00:32:42;100517.28;;;15.83;100.00
15308;BME280;7755;52.208;6.964;2023-07-31T00:36:45;100528.00;;;15.80;100.00
15308;BME280;7755;52.208;6.964;2023-07-31T00:40:51;100534.03;;;15.77;100.00
15308;BME280;7755;52.208;6.964;2023-07-31T00:44:55;100534.84;;;15.77;100.00
15308;BME280;7755;52.208;6.964;2023-07-31T00:48:59;100524.44;;;15.74;100.00
15308;BME280;7755;52.208;6.964;2023-07-31T00:53:02;100528.81;;;15.75;100.00
15308;BME280;7755;52.208;6.964;2023-07-31T00:57:07;100520.59;;;15.75;100.00
15308;BME280;7755;52.208;6.964;2023-07-31T01:01:11;100512.38;;;15.75;100.00
15308;BME280;7755;52.208;6.964;2023-07-31T01:15:37;100487.72;;;15.70;100.00
15308;BME280;7755;52.208;6.964;2023-07-31T01:19:42;100478.38;;;15.76;100.00
15308;BME280;7755;52.208;6.964;2023-07-31T01:24:12;100476.97;;;15.84;100.00
15308;BME280;7755;52.208;6.964;2023-07-31T01:28:28;100464.34;;;15.88;100.00
15308;BME280;7755;52.208;6.964;2023-07-31T01:32:45;100472.88;;;15.87;100.00
15308;BME280;7755;52.208;6.964;2023-07-31T01:36:50;100469.00;;;15.88;100.00
15308;BME280;7755;52.208;6.964;2023-07-31T01:40:53;100471.22;;;15.86;100.00
15308;BME280;7755;52.208;6.964;2023-07-31T01:45:01;100469.31;;;15.86;100.00
15308;BME280;7755;52.208;6.964;2023-07-31T01:49:09;100461.31;;;15.95;100.00
15308;BME280;7755;52.208;6.964;2023-07-31T01:53:14;100471.44;;;15.99;100.00
15308;BME280;7755;52.208;6.964;2023-07-31T01:57:17;100460.19;;;15.96;100.00
15308;BME280;7755;52.208;6.964;2023-07-31T02:01:21;100458.28;;;15.96;100.00
15308;BME280;7755;52.208;6.964;2023-07-31T02:05:26;100455.25;;;15.98;100.00
15308;BME280;7755;52.208;6.964;2023-07-31T02:09:30;100448.38;;;16.00;100.00
15308;BME280;7755;52.208;6.964;2023-07-31T02:13:34;100442.00;;;16.10;100.00
15308;BME280;7755;52.208;6.964;2023-07-31T02:17:41;100429.94;;;16.11;100.00
15308;BME280;7755;52.208;6.964;2023-07-31T02:21:46;100422.78;;;16.15;100.00
15308;BME280;7755;52.208;6.964;2023-07-31T02:25:50;100412.94;;;16.14;100.00
15308;BME280;7755;52.208;6.964;2023-07-31T02:29:54;100412.06;;;16.19;100.00
15308;BME280;7755;52.208;6.964;2023-07-31T02:33:59;100412.31;;;16.22;100.00
15308;BME280;7755;52.208;6.964;2023-07-31T02:38:09;100401.31;;;16.27;100.00
15308;BME280;7755;52.208;6.964;2023-07-31T02:42:13;100397.47;;;16.28;100.00
15308;BME280;7755;52.208;6.964;2023-07-31T02:46:16;100392.19;;;16.32;100.00
15308;BME280;7755;52.208;6.964;2023-07-31T02:50:20;100392.69;;;16.39;100.00
15308;BME280;7755;52.208;6.964;2023-07-31T02:54:24;100394.06;;;16.42;100.00
15308;BME280;7755;52.208;6.964;2023-07-31T02:58:31;100385.22;;;16.50;100.00
15308;BME280;7755;52.208;6.964;2023-07-31T03:02:39;100384.06;;;16.56;100.00
15308;BME280;7755;52.208;6.964;2023-07-31T03:06:45;100386.22;;;16.59;100.00
15308;BME280;7755;52.208;6.964;2023-07-31T03:10:56;100378.53;;;16.61;100.00
15308;BME280;7755;52.208;6.964;2023-07-31T03:15:02;100373.28;;;16.64;100.00
15308;BME280;7755;52.208;6.964;2023-07-31T03:19:07;100379.88;;;16.63;100.00
15308;BME280;7755;52.208;6.964;2023-07-31T03:23:13;100383.44;;;16.64;100.00
15308;BME280;7755;52.208;6.964;2023-07-31T03:27:16;100385.88;;;16.71;100.00
15308;BME280;7755;52.208;6.964;2023-07-31T03:31:20;100392.47;;;16.64;100.00
15308;BME280;7755;52.208;6.964;2023-07-31T03:35:23;100390.28;;;16.67;100.00
15308;BME280;7755;52.208;6.964;2023-07-31T03:39:31;100394.13;;;16.65;100.00
15308;BME280;7755;52.208;6.964;2023-07-31T03:43:41;100382.56;;;16.69;100.00
15308;BME280;7755;52.208;6.964;2023-07-31T03:47:45;100385.88;;;16.65;100.00
15308;BME280;7755;52.208;6.964;2023-07-31T03:51:48;100390.56;;;16.65;100.00
15308;BME280;7755;52.208;6.964;2023-07-31T03:55:53;100382.56;;;16.69;100.00
15308;BME280;7755;52.208;6.964;2023-07-31T03:59:57;100387.25;;;16.68;100.00
15308;BME280;7755;52.208;6.964;2023-07-31T04:04:00;100388.31;;;16.72;100.00
15308;BME280;7755;52.208;6.964;2023-07-31T04:08:04;100399.03;;;16.74;100.00
15308;BME280;7755;52.208;6.964;2023-07-31T04:12:09;100392.94;;;16.77;100.00
15308;BME280;7755;52.208;6.964;2023-07-31T04:16:12;100377.88;;;16.74;100.00
15308;BME280;7755;52.208;6.964;2023-07-31T04:20:15;100385.56;;;16.72;100.00
15308;BME280;7755;52.208;6.964;2023-07-31T04:24:18;100395.47;;;16.73;100.00
15308;BME280;7755;52.208;6.964;2023-07-31T04:28:27;100384.19;;;16.75;100.00
15308;BME280;7755;52.208;6.964;2023-07-31T04:32:30;100383.38;;;16.69;100.00
15308;BME280;7755;52.208;6.964;2023-07-31T04:36:33;100388.56;;;16.76;100.00
15308;BME280;7755;52.208;6.964;2023-07-31T04:40:36;100398.75;;;16.75;100.00
15308;BME280;7755;52.208;6.964;2023-07-31T04:44:41;100386.97;;;16.70;100.00
15308;BME280;7755;52.208;6.964;2023-07-31T04:48:44;100389.22;;;16.62;100.00
15308;BME280;7755;52.208;6.964;2023-07-31T04:52:47;100371.34;;;16.65;100.00
15308;BME280;7755;52.208;6.964;2023-07-31T04:56:50;100375.16;;;16.69;100.00
15308;BME280;7755;52.208;6.964;2023-07-31T05:00:55;100364.72;;;16.71;100.00
15308;BME280;7755;52.208;6.964;2023-07-31T05:04:58;100369.41;;;16.65;100.00
15308;BME280;7755;52.208;6.964;2023-07-31T05:09:01;100372.16;;;16.65;100.00
15308;BME280;7755;52.208;6.964;2023-07-31T05:13:04;100367.25;;;16.62;100.00
15308;BME280;7755;52.208;6.964;2023-07-31T05:17:08;100366.66;;;16.65;100.00
15308;BME280;7755;52.208;6.964;2023-07-31T05:21:11;100357.38;;;16.61;100.00
15308;BME280;7755;52.208;6.964;2023-07-31T05:25:14;100353.53;;;16.62;100.00
15308;BME280;7755;52.208;6.964;2023-07-31T05:29:18;100364.25;;;16.59;100.00
15308;BME280;7755;52.208;6.964;2023-07-31T05:33:29;100365.44;;;16.53;100.00
15308;BME280;7755;52.208;6.964;2023-07-31T05:37:32;100375.88;;;16.51;100.00
15308;BME280;7755;52.208;6.964;2023-07-31T05:42:05;100365.44;;;16.53;100.00
15308;BME280;7755;52.208;6.964;2023-07-31T05:46:09;100345.44;;;16.47;100.00
15308;BME280;7755;52.208;6.964;2023-07-31T05:50:15;100344.63;;;16.47;100.00
15308;BME280;7755;52.208;6.964;2023-07-31T05:54:18;100351.50;;;16.44;100.00
15308;BME280;7755;52.208;6.964;2023-07-31T05:58:21;100336.91;;;16.49;100.00
15308;BME280;7755;52.208;6.964;2023-07-31T06:02:24;100341.56;;;16.53;100.00
15308;BME280;7755;52.208;6.964;2023-07-31T06:06:28;100333.03;;;16.55;100.00
15308;BME280;7755;52.208;6.964;2023-07-31T06:10:31;100335.19;;;16.58;100.00
15308;BME280;7755;52.208;6.964;2023-07-31T06:14:34;100335.09;;;16.68;100.00
15308;BME280;7755;52.208;6.964;2023-07-31T06:18:37;100328.47;;;16.74;100.00
15308;BME280;7755;52.208;6.964;2023-07-31T06:22:42;100335.56;;;16.80;100.00
15308;BME280;7755;52.208;6.964;2023-07-31T06:26:44;100335.78;;;16.84;100.00
15308;BME280;7755;52.208;6.964;2023-07-31T06:30:47;100339.03;;;16.86;100.00
15308;BME280;7755;52.208;6.964;2023-07-31T06:34:51;100336.53;;;16.89;100.00
15308;BME280;7755;52.208;6.964;2023-07-31T06:38:57;100326.72;;;16.83;100.00
15308;BME280;7755;52.208;6.964;2023-07-31T06:43:00;100319.88;;;16.81;100.00
15308;BME280;7755;52.208;6.964;2023-07-31T06:47:10;100321.28;;;16.78;100.00
15308;BME280;7755;52.208;6.964;2023-07-31T06:51:16;100309.47;;;16.78;100.00
15308;BME280;7755;52.208;6.964;2023-07-31T06:55:21;100313.94;;;16.74;100.00
15308;BME280;7755;52.208;6.964;2023-07-31T06:59:24;100304.63;;;16.70;100.00
15308;BME280;7755;52.208;6.964;2023-07-31T07:03:27;100300.47;;;16.72;100.00
15308;BME280;7755;52.208;6.964;2023-07-31T07:07:30;100301.03;;;16.74;100.00
15308;BME280;7755;52.208;6.964;2023-07-31T07:11:34;100302.59;;;16.80;100.00
15308;BME280;7755;52.208;6.964;2023-07-31T07:15:39;100290.41;;;16.86;100.00
15308;BME280;7755;52.208;6.964;2023-07-31T07:19:42;100293.41;;;16.90;100.00
15308;BME280;7755;52.208;6.964;2023-07-31T07:23:46;100285.69;;;16.92;100.00
15308;BME280;7755;52.208;6.964;2023-07-31T07:27:51;100279.94;;;16.94;100.00
15308;BME280;7755;52.208;6.964;2023-07-31T07:31:54;100276.59;;;16.97;100.00
15308;BME280;7755;52.208;6.964;2023-07-31T07:36:00;100269.91;;;17.03;100.00
15308;BME280;7755;52.208;6.964;2023-07-31T07:40:04;100268.28;;;17.02;100.00
15308;BME280;7755;52.208;6.964;2023-07-31T07:44:09;100262.44;;;17.08;100.00
15308;BME280;7755;52.208;6.964;2023-07-31T07:48:12;100268.91;;;17.17;100.00
15308;BME280;7755;52.208;6.964;2023-07-31T07:52:16;100272.91;;;17.25;100.00
15308;BME280;7755;52.208;6.964;2023-07-31T07:56:19;100270.97;;;17.26;100.00
15308;BME280;7755;52.208;6.964;2023-07-31T08:00:23;100264.38;;;17.27;100.00
15308;BME280;7755;52.208;6.964;2023-07-31T08:04:26;100250.06;;;17.30;100.00
15308;BME280;7755;52.208;6.964;2023-07-31T08:08:29;100256.81;;;17.37;100.00
15308;BME280;7755;52.208;6.964;2023-07-31T08:12:32;100255.19;;;17.36;100.00
15308;BME280;7755;52.208;6.964;2023-07-31T08:16:37;100243.38;;;17.36;100.00
15308;BME280;7755;52.208;6.964;2023-07-31T08:20:40;100244.94;;;17.42;100.00
15308;BME280;7755;52.208;6.964;2023-07-31T08:24:43;100236.38;;;17.43;100.00
15308;BME280;7755;52.208;6.964;2023-07-31T08:28:46;100234.59;;;17.53;100.00
15308;BME280;7755;52.208;6.964;2023-07-31T08:32:50;100224.41;;;17.53;100.00
15308;BME280;7755;52.208;6.964;2023-07-31T08:36:53;100228.72;;;17.59;100.00
15308;BME280;7755;52.208;6.964;2023-07-31T08:41:22;100224.78;;;17.65;100.00
15308;BME280;7755;52.208;6.964;2023-07-31T08:45:25;100225.81;;;17.69;100.00
15308;BME280;7755;52.208;6.964;2023-07-31T08:49:30;100219.78;;;17.67;100.00
15308;BME280;7755;52.208;6.964;2023-07-31T08:53:33;100222.03;;;17.65;100.00
15308;BME280;7755;52.208;6.964;2023-07-31T08:57:38;100216.19;;;17.72;100.00
15308;BME280;7755;52.208;6.964;2023-07-31T09:01:43;100223.38;;;17.68;100.00
15308;BME280;7755;52.208;6.964;2023-07-31T09:05:51;100218.94;;;17.72;100.00
15308;BME280;7755;52.208;6.964;2023-07-31T09:09:54;100220.63;;;17.68;100.00
15308;BME280;7755;52.208;6.964;2023-07-31T09:13:57;100218.63;;;17.73;100.00
15308;BME280;7755;52.208;6.964;2023-07-31T09:18:05;100222.19;;;17.74;100.00
15308;BME280;7755;52.208;6.964;2023-07-31T09:22:10;100214.47;;;17.76;100.00
15308;BME280;7755;52.208;6.964;2023-07-31T09:26:28;100214.47;;;17.76;100.00
15308;BME280;7755;52.208;6.964;2023-07-31T09:30:44;100210.78;;;17.81;100.00
15308;BME280;7755;52.208;6.964;2023-07-31T09:34:47;100207.38;;;17.89;100.00
15308;BME280;7755;52.208;6.964;2023-07-31T09:38:51;100200.44;;;17.91;100.00
15308;BME280;7755;52.208;6.964;2023-07-31T09:42:56;100205.75;;;18.01;100.00
15308;BME280;7755;52.208;6.964;2023-07-31T09:47:00;100205.97;;;18.05;100.00
15308;BME280;7755;52.208;6.964;2023-07-31T09:51:04;100198.47;;;18.11;100.00
15308;BME280;7755;52.208;6.964;2023-07-31T09:55:09;100189.00;;;18.17;100.00
15308;BME280;7755;52.208;6.964;2023-07-31T09:59:13;100199.88;;;18.08;100.00
15308;BME280;7755;52.208;6.964;2023-07-31T10:03:17;100189.16;;;18.07;100.00
15308;BME280;7755;52.208;6.964;2023-07-31T10:07:20;100192.72;;;18.07;100.00
15308;BME280;7755;52.208;6.964;2023-07-31T10:11:27;100182.25;;;18.09;100.00
15308;BME280;7755;52.208;6.964;2023-07-31T10:15:34;100189.28;;;18.15;100.00
15308;BME280;7755;52.208;6.964;2023-07-31T10:19:39;100195.41;;;18.12;100.00
15308;BME280;7755;52.208;6.964;2023-07-31T10:23:43;100190.59;;;18.04;100.00
15308;BME280;7755;52.208;6.964;2023-07-31T10:27:49;100188.56;;;18.10;100.00
15308;BME280;7755;52.208;6.964;2023-07-31T10:31:52;100186.72;;;18.05;100.00
15308;BME280;7755;52.208;6.964;2023-07-31T10:36:12;100192.31;;;18.00;100.00
15308;BME280;7755;52.208;6.964;2023-07-31T10:40:18;100190.59;;;18.04;100.00
15308;BME280;7755;52.208;6.964;2023-07-31T10:44:24;100177.34;;;18.06;100.00
15308;BME280;7755;52.208;6.964;2023-07-31T10:48:33;100183.06;;;18.10;100.00
15308;BME280;7755;52.208;6.964;2023-07-31T10:52:45;100193.78;;;18.11;100.00
15308;BME280;7755;52.208;6.964;2023-07-31T10:56:50;100178.88;;;18.12;100.00
15308;BME280;7755;52.208;6.964;2023-07-31T11:00:57;100171.78;;;18.25;100.00
15308;BME280;7755;52.208;6.964;2023-07-31T11:05:07;100169.75;;;18.31;100.00
15308;BME280;7755;52.208;6.964;2023-07-31T11:09:13;100172.19;;;18.32;100.00
15308;BME280;7755;52.208;6.964;2023-07-31T11:13:17;100178.09;;;18.39;100.00
15308;BME280;7755;52.208;6.964;2023-07-31T11:17:24;100173.81;;;18.33;100.00
15308;BME280;7755;52.208;6.964;2023-07-31T11:21:28;100174.72;;;18.28;100.00
15308;BME280;7755;52.208;6.964;2023-07-31T11:25:31;100166.19;;;18.30;100.00
15308;BME280;7755;52.208;6.964;2023-07-31T11:29:35;100171.06;;;18.33;100.00
15308;BME280;7755;52.208;6.964;2023-07-31T11:33:39;100174.72;;;18.28;100.00
15308;BME280;7755;52.208;6.964;2023-07-31T11:37:42;100152.59;;;18.34;100.00
15308;BME280;7755;52.208;6.964;2023-07-31T11:41:45;100153.81;;;18.41;100.00
15308;BME280;7755;52.208;6.964;2023-07-31T11:45:50;100148.22;;;18.46;100.00
15308;BME280;7755;52.208;6.964;2023-07-31T11:49:54;100162.38;;;18.53;100.00
15308;BME280;7755;52.208;6.964;2023-07-31T11:53:58;100169.84;;;18.53;100.00
15308;BME280;7755;52.208;6.964;2023-07-31T11:58:03;100160.03;;;18.61;100.00
15308;BME280;7755;52.208;6.964;2023-07-31T12:02:06;100173.22;;;18.64;100.00
15308;BME280;7755;52.208;6.964;2023-07-31T12:06:11;100149.53;;;18.63;100.00
15308;BME280;7755;52.208;6.964;2023-07-31T12:10:25;100168.22;;;18.79;100.00
15308;BME280;7755;52.208;6.964;2023-07-31T12:14:28;100159.03;;;18.84;100.00
15308;BME280;7755;52.208;6.964;2023-07-31T12:18:34;100154.09;;;18.95;100.00
15308;BME280;7755;52.208;6.964;2023-07-31T12:22:39;100150.97;;;19.10;100.00
15308;BME280;7755;52.208;6.964;2023-07-31T12:26:45;100152.81;;;19.15;100.00
15308;BME280;7755;52.208;6.964;2023-07-31T12:30:49;100148.47;;;19.00;100.00
15308;BME280;7755;52.208;6.964;2023-07-31T12:34:51;100156.47;;;18.88;100.00
15308;BME280;7755;52.208;6.964;2023-07-31T12:38:56;100156.56;;;18.82;100.00
15308;BME280;7755;52.208;6.964;2023-07-31T12:43:03;100149.75;;;18.80;100.00
15308;BME280;7755;52.208;6.964;2023-07-31T12:47:06;100150.97;;;18.74;100.00
15308;BME280;7755;52.208;6.964;2023-07-31T12:51:09;100136.50;;;18.68;100.00
15308;BME280;7755;52.208;6.964;2023-07-31T12:55:13;100138.34;;;18.73;100.00
15308;BME280;7755;52.208;6.964;2023-07-31T12:59:16;100142.31;;;18.67;100.00
15308;BME280;7755;52.208;6.964;2023-07-31T13:03:19;100135.91;;;18.71;100.00
15308;BME280;7755;52.208;6.964;2023-07-31T13:07:22;100127.53;;;18.76;100.00
15308;BME280;7755;52.208;6.964;2023-07-31T13:11:26;100115.38;;;18.77;100.00
15308;BME280;7755;52.208;6.964;2023-07-31T13:15:29;100127.72;;;18.80;100.00
15308;BME280;7755;52.208;6.964;2023-07-31T13:19:32;100110.13;;;18.90;100.00
15308;BME280;7755;52.208;6.964;2023-07-31T13:23:36;100104.06;;;19.01;100.00
15308;BME280;7755;52.208;6.964;2023-07-31T13:27:40;100100.94;;;19.17;100.00
15308;BME280;7755;52.208;6.964;2023-07-31T13:31:44;100100.84;;;19.22;100.00
15308;BME280;7755;52.208;6.964;2023-07-31T13:35:47;100105.59;;;19.30;100.00
15308;BME280;7755;52.208;6.964;2023-07-31T13:39:51;100092.50;;;19.35;100.00
15308;BME280;7755;52.208;6.964;2023-07-31T13:43:56;100092.38;;;19.41;100.00
15308;BME280;7755;52.208;6.964;2023-07-31T13:48:00;100093.38;;;19.45;100.00
15308;BME280;7755;52.208;6.964;2023-07-31T13:52:03;100100.53;;;19.46;100.00
15308;BME280;7755;52.208;6.964;2023-07-31T13:56:06;100108.59;;;19.42;100.00
15308;BME280;7755;52.208;6.964;2023-07-31T14:00:13;100110.53;;;19.42;100.00
15308;BME280;7755;52.208;6.964;2023-07-31T14:04:16;100101.91;;;19.34;100.00
15308;BME280;7755;52.208;6.964;2023-07-31T14:08:20;100112.06;;;19.25;100.00
15308;BME280;7755;52.208;6.964;2023-07-31T14:12:23;100105.97;;;19.37;100.00
15308;BME280;7755;52.208;6.964;2023-07-31T14:16:33;100104.72;;;19.43;100.00
15308;BME280;7755;52.208;6.964;2023-07-31T14:20:36;100094.38;;;19.49;100.00
15308;BME280;7755;52.208;6.964;2023-07-31T14:24:40;100105.75;;;19.56;100.00
15308;BME280;7755;52.208;6.964;2023-07-31T14:28:43;100097.44;;;19.70;100.00
15308;BME280;7755;52.208;6.964;2023-07-31T14:32:48;100084.81;;;19.77;100.00
15308;BME280;7755;52.208;6.964;2023-07-31T14:36:51;100080.28;;;19.73;100.00
15308;BME280;7755;52.208;6.964;2023-07-31T14:40:54;100067.97;;;19.79;100.00
15308;BME280;7755;52.208;6.964;2023-07-31T14:44:58;100076.53;;;19.77;100.00
15308;BME280;7755;52.208;6.964;2023-07-31T14:49:02;100073.13;;;19.72;100.00
15308;BME280;7755;52.208;6.964;2023-07-31T14:53:05;100070.56;;;19.53;100.00
15308;BME280;7755;52.208;6.964;2023-07-31T14:57:08;100076.53;;;19.46;100.00
15308;BME280;7755;52.208;6.964;2023-07-31T15:01:11;100083.63;;;19.39;100.00
15308;BME280;7755;52.208;6.964;2023-07-31T15:05:16;100069.81;;;19.16;100.00
15308;BME280;7755;52.208;6.964;2023-07-31T15:09:18;100063.66;;;19.11;100.00
15308;BME280;7755;52.208;6.964;2023-07-31T15:13:21;100066.84;;;19.04;100.00
15308;BME280;7755;52.208;6.964;2023-07-31T15:17:24;100065.19;;;19.03;100.00
15308;BME280;7755;52.208;6.964;2023-07-31T15:21:29;100064.19;;;18.99;100.00
15308;BME280;7755;52.208;6.964;2023-07-31T15:25:33;100042.47;;;18.97;100.00
15308;BME280;7755;52.208;6.964;2023-07-31T15:29:36;100043.41;;;18.93;100.00
15308;BME280;7755;52.208;6.964;2023-07-31T15:33:39;100041.91;;;18.87;100.00
15308;BME280;7755;52.208;6.964;2023-07-31T15:37:44;100042.91;;;18.91;100.00
15308;BME280;7755;52.208;6.964;2023-07-31T15:41:47;100034.31;;;18.92;100.00
15308;BME280;7755;52.208;6.964;2023-07-31T15:45:50;100027.50;;;18.90;100.00
15308;BME280;7755;52.208;6.964;2023-07-31T15:49:54;100009.53;;;18.92;100.00
15308;BME280;7755;52.208;6.964;2023-07-31T15:53:58;100010.84;;;18.95;100.00
15308;BME280;7755;52.208;6.964;2023-07-31T15:58:01;100011.97;;;18.94;100.00
15308;BME280;7755;52.208;6.964;2023-07-31T16:02:04;100002.84;;;18.85;100.00
15308;BME280;7755;52.208;6.964;2023-07-31T16:06:07;99983.84;;;18.83;100.00
15308;BME280;7755;52.208;6.964;2023-07-31T16:10:13;99984.97;;;18.82;100.00
15308;BME280;7755;52.208;6.964;2023-07-31T16:14:16;99977.34;;;18.79;100.00
15308;BME280;7755;52.208;6.964;2023-07-31T16:18:20;99968.72;;;18.72;100.00
15308;BME280;7755;52.208;6.964;2023-07-31T16:22:23;99961.16;;;18.77;100.00
15308;BME280;7755;52.208;6.964;2023-07-31T16:26:28;99950.44;;;18.76;100.00
15308;BME280;7755;52.208;6.964;2023-07-31T16:30:52;99953.19;;;18.76;100.00
15308;BME280;7755;52.208;6.964;2023-07-31T16:35:02;99952.69;;;18.74;100.00
15308;BME280;7755;52.208;6.964;2023-07-31T16:44:07;99925.47;;;18.72;100.00
15308;BME280;7755;52.208;6.964;2023-07-31T16:48:10;99929.69;;;18.70;100.00
15308;BME280;7755;52.208;6.964;2023-07-31T16:52:21;99904.16;;;18.64;100.00
15308;BME280;7755;52.208;6.964;2023-07-31T16:56:31;99900.25;;;18.57;100.00
15308;BME280;7755;52.208;6.964;2023-07-31T17:00:55;99905.22;;;18.54;100.00
15308;BME280;7755;52.208;6.964;2023-07-31T17:05:00;99895.97;;;18.50;100.00
15308;BME280;7755;52.208;6.964;2023-07-31T17:09:03;99885.91;;;18.46;100.00
15308;BME280;7755;52.208;6.964;2023-07-31T17:13:06;99879.97;;;18.52;100.00
15308;BME280;7755;52.208;6.964;2023-07-31T17:17:10;99874.13;;;18.54;100.00
15308;BME280;7755;52.208;6.964;2023-07-31T17:21:13;99873.81;;;18.55;100.00
15308;BME280;7755;52.208;6.964;2023-07-31T17:25:17;99859.44;;;18.59;100.00
15308;BME280;7755;52.208;6.964;2023-07-31T17:29:27;99845.47;;;18.55;100.00
15308;BME280;7755;52.208;6.964;2023-07-31T17:33:31;99832.03;;;18.53;100.00
15308;BME280;7755;52.208;6.964;2023-07-31T17:37:34;99831.41;;;18.57;100.00
15308;BME280;7755;52.208;6.964;2023-07-31T17:41:37;99842.22;;;18.53;100.00
15308;BME280;7755;52.208;6.964;2023-07-31T17:45:40;99852.88;;;18.46;100.00
15308;BME280;7755;52.208;6.964;2023-07-31T17:49:44;99848.28;;;18.41;100.00
15308;BME280;7755;52.208;6.964;2023-07-31T17:53:48;99863.50;;;18.39;100.00
15308;BME280;7755;52.208;6.964;2023-07-31T17:57:51;99838.38;;;18.32;100.00
15308;BME280;7755;52.208;6.964;2023-07-31T18:01:55;99839.81;;;18.29;100.00
15308;BME280;7755;52.208;6.964;2023-07-31T18:05:59;99829.91;;;18.28;100.00
15308;BME280;7755;52.208;6.964;2023-07-31T18:10:02;99830.56;;;18.25;100.00
15308;BME280;7755;52.208;6.964;2023-07-31T18:14:06;99829.25;;;18.22;100.00
15308;BME280;7755;52.208;6.964;2023-07-31T18:18:09;99840.38;;;18.17;100.00
15308;BME280;7755;52.208;6.964;2023-07-31T18:22:13;99823.97;;;18.12;100.00
15308;BME280;7755;52.208;6.964;2023-07-31T18:26:16;99823.50;;;18.10;100.00
15308;BME280;7755;52.208;6.964;2023-07-31T18:30:20;99828.78;;;18.07;100.00
15308;BME280;7755;52.208;6.964;2023-07-31T18:34:23;99818.41;;;18.04;100.00
15308;BME280;7755;52.208;6.964;2023-07-31T18:38:27;99801.28;;;18.07;100.00
15308;BME280;7755;52.208;6.964;2023-07-31T18:42:33;99804.03;;;18.07;100.00
15308;BME280;7755;52.208;6.964;2023-07-31T18:46:36;99793.84;;;18.07;100.00
15308;BME280;7755;52.208;6.964;2023-07-31T18:50:40;99790.91;;;18.04;100.00
15308;BME280;7755;52.208;6.964;2023-07-31T18:54:46;99784.88;;;18.01;100.00
15308;BME280;7755;52.208;6.964;2023-07-31T18:58:50;99781.66;;;17.99;100.00
15308;BME280;7755;52.208;6.964;2023-07-31T19:02:55;99769.94;;;17.94;100.00
15308;BME280;7755;52.208;6.964;2023-07-31T19:06:58;99764.59;;;17.89;100.00
15308;BME280;7755;52.208;6.964;2023-07-31T19:11:02;99745.34;;;17.89;100.00
15308;BME280;7755;52.208;6.964;2023-07-31T19:15:06;99754.59;;;17.93;100.00
15308;BME280;7755;52.208;6.964;2023-07-31T19:19:09;99755.81;;;17.87;100.00
15308;BME280;7755;52.208;6.964;2023-07-31T19:23:12;99739.22;;;17.92;100.00
15308;BME280;7755;52.208;6.964;2023-07-31T19:27:16;99728.69;;;17.94;100.00
15308;BME280;7755;52.208;6.964;2023-07-31T19:31:19;99741.47;;;17.90;100.00
15308;BME280;7755;52.208;6.964;2023-07-31T19:35:22;99735.44;;;17.88;100.00
15308;BME280;7755;52.208;6.964;2023-07-31T19:39:25;99740.84;;;17.93;100.00
15308;BME280;7755;52.208;6.964;2023-07-31T19:43:29;99740.84;;;17.93;100.00
15308;BME280;7755;52.208;6.964;2023-07-31T19:47:32;99742.78;;;17.92;100.00
15308;BME280;7755;52.208;6.964;2023-07-31T19:51:35;99720.44;;;17.94;100.00
15308;BME280;7755;52.208;6.964;2023-07-31T19:55:45;99728.91;;;17.97;100.00
15308;BME280;7755;52.208;6.964;2023-07-31T19:59:49;99701.06;;;17.99;100.00
15308;BME280;7755;52.208;6.964;2023-07-31T20:03:52;99690.28;;;18.03;100.00
15308;BME280;7755;52.208;6.964;2023-07-31T20:07:56;99698.19;;;18.04;100.00
15308;BME280;7755;52.208;6.964;2023-07-31T20:11:58;99701.28;;;18.03;100.00
15308;BME280;7755;52.208;6.964;2023-07-31T20:16:03;99703.34;;;17.97;100.00
15308;BME280;7755;52.208;6.964;2023-07-31T20:20:07;99706.41;;;17.95;100.00
15308;BME280;7755;52.208;6.964;2023-07-31T20:24:10;99704.97;;;17.98;100.00
15308;BME280;7755;52.208;6.964;2023-07-31T20:28:13;99697.03;;;17.96;100.00
15308;BME280;7755;52.208;6.964;2023-07-31T20:32:18;99693.75;;;17.94;100.00
15308;BME280;7755;52.208;6.964;2023-07-31T20:36:21;99691.66;;;17.91;100.00
15308;BME280;7755;52.208;6.964;2023-07-31T20:40:24;99698.78;;;17.92;100.00
15308;BME280;7755;52.208;6.964;2023-07-31T20:44:26;99683.28;;;17.96;100.00
15308;BME280;7755;52.208;6.964;2023-07-31T20:48:31;99672.56;;;17.95;100.00
15308;BME280;7755;52.208;6.964;2023-07-31T20:52:34;99669.81;;;17.95;100.00
15308;BME280;7755;52.208;6.964;2023-07-31T20:56:37;99657.84;;;17.91;100.00
15308;BME280;7755;52.208;6.964;2023-07-31T21:00:40;99662.22;;;17.92;100.00
15308;BME280;7755;52.208;6.964;2023-07-31T21:04:46;99660.72;;;17.86;100.00
15308;BME280;7755;52.208;6.964;2023-07-31T21:08:49;99652.59;;;17.81;100.00
15308;BME280;7755;52.208;6.964;2023-07-31T21:12:52;99645.66;;;17.83;100.00
15308;BME280;7755;52.208;6.964;2023-07-31T21:16:55;99648.41;;;17.83;100.00
15308;BME280;7755;52.208;6.964;2023-07-31T21:21:00;99629.63;;;17.77;100.00
15308;BME280;7755;52.208;6.964;2023-07-31T21:25:03;99642.34;;;17.72;100.00
15308;BME280;7755;52.208;6.964;2023-07-31T21:29:06;99636.34;;;17.70;100.00
15308;BME280;7755;52.208;6.964;2023-07-31T21:33:09;99635.53;;;17.70;100.00
15308;BME280;7755;52.208;6.964;2023-07-31T21:37:14;99622.72;;;17.65;100.00